sensor_id;sensor_type;location;lat;lon;timestamp;pressure;altitude;pressure_sealevel;temperature;humidity
51999;BME280;73339;50.924;11.598;2024-03-25T00:00:16;98146.97;;;19.68;30.50
51999;BME280;73339;50.924;11.598;2024-03-25T00:02:47;98147.91;;;19.66;30.48
51999;BME280;73339;50.924;11.598;2024-03-25T00:05:17;98166.89;;;19.65;30.62
51999;BME280;73339;50.924;11.598;2024-03-25T00:07:48;98153.73;;;19.66;30.53
51999;BME280;73339;50.924;11.598;2024-03-25T00:10:18;98159.25;;;19.66;30.49
51999;BME280;73339;50.924;11.598;2024-03-25T00:12:49;98154.09;;;19.64;30.60
51999;BME280;73339;50.924;11.598;2024-03-25T00:15:19;98152.05;;;19.70;30.48
51999;BME280;73339;50.924;11.598;2024-03-25T00:17:50;98159.33;;;19.67;30.50
51999;BME280;73339;50.924;11.598;2024-03-25T00:20:20;98149.83;;;19.71;30.50
51999;BME280;73339;50.924;11.598;2024-03-25T00:22:51;98159.27;;;19.66;30.55
51999;BME280;73339;50.924;11.598;2024-03-25T00:25:21;98162.94;;;19.69;30.48
51999;BME280;73339;50.924;11.598;2024-03-25T00:27:52;98170.16;;;19.68;30.48
51999;BME280;73339;50.924;11.598;2024-03-25T00:30:22;98171.57;;;19.69;30.52
51999;BME280;73339;50.924;11.598;2024-03-25T00:32:53;98169.23;;;19.71;30.50
51999;BME280;73339;50.924;11.598;2024-03-25T00:35:23;98164.88;;;19.71;30.48
51999;BME280;73339;50.924;11.598;2024-03-25T00:37:53;98164.56;;;19.66;30.55
51999;BME280;73339;50.924;11.598;2024-03-25T00:40:24;98174.98;;;19.72;30.51
51999;BME280;73339;50.924;11.598;2024-03-25T00:42:54;98174.70;;;19.70;30.47
51999;BME280;73339;50.924;11.598;2024-03-25T00:45:25;98169.80;;;19.71;30.54
51999;BME280;73339;50.924;11.598;2024-03-25T00:47:55;98175.15;;;19.67;30.52
51999;BME280;73339;50.924;11.598;2024-03-25T00:50:26;98176.99;;;19.68;30.52
51999;BME280;73339;50.924;11.598;2024-03-25T00:52:56;98174.11;;;19.69;30.58
51999;BME280;73339;50.924;11.598;2024-03-25T00:55:26;98173.90;;;19.69;30.54
51999;BME280;73339;50.924;11.598;2024-03-25T00:57:57;98173.39;;;19.73;30.55
51999;BME280;73339;50.924;11.598;2024-03-25T01:00:27;98172.63;;;19.66;30.65
51999;BME280;73339;50.924;11.598;2024-03-25T01:02:58;98175.96;;;19.71;30.49
51999;BME280;73339;50.924;11.598;2024-03-25T01:05:29;98183.08;;;19.71;30.47
51999;BME280;73339;50.924;11.598;2024-03-25T01:07:59;98179.22;;;19.66;30.55
51999;BME280;73339;50.924;11.598;2024-03-25T01:10:29;98182.76;;;19.63;30.60
51999;BME280;73339;50.924;11.598;2024-03-25T01:13:00;98186.69;;;19.64;30.59
51999;BME280;73339;50.924;11.598;2024-03-25T01:15:30;98180.40;;;19.67;30.54
51999;BME280;73339;50.924;11.598;2024-03-25T01:18:01;98175.57;;;19.68;30.50
51999;BME280;73339;50.924;11.598;2024-03-25T01:20:31;98181.71;;;19.73;30.40
51999;BME280;73339;50.924;11.598;2024-03-25T01:23:02;98183.25;;;19.66;30.57
51999;BME280;73339;50.924;11.598;2024-03-25T01:25:32;98184.33;;;19.67;30.54
51999;BME280;73339;50.924;11.598;2024-03-25T01:28:03;98186.92;;;19.71;30.54
51999;BME280;73339;50.924;11.598;2024-03-25T01:30:33;98186.17;;;19.67;30.59
51999;BME280;73339;50.924;11.598;2024-03-25T01:33:04;98186.14;;;19.69;30.47
51999;BME280;73339;50.924;11.598;2024-03-25T01:35:34;98191.41;;;19.67;30.59
51999;BME280;73339;50.924;11.598;2024-03-25T01:38:05;98196.11;;;19.65;30.60
51999;BME280;73339;50.924;11.598;2024-03-25T01:40:35;98198.71;;;19.71;30.50
51999;BME280;73339;50.924;11.598;2024-03-25T01:43:05;98201.28;;;19.70;30.53
51999;BME280;73339;50.924;11.598;2024-03-25T01:45:36;98196.50;;;19.74;30.47
51999;BME280;73339;50.924;11.598;2024-03-25T01:48:08;98194.40;;;19.71;30.53
51999;BME280;73339;50.924;11.598;2024-03-25T01:50:41;98195.05;;;19.69;30.57
51999;BME280;73339;50.924;11.598;2024-03-25T01:53:08;98194.52;;;19.71;30.48
51999;BME280;73339;50.924;11.598;2024-03-25T01:55:38;98195.38;;;19.73;30.48
51999;BME280;73339;50.924;11.598;2024-03-25T01:58:09;98194.80;;;19.72;30.44
51999;BME280;73339;50.924;11.598;2024-03-25T02:00:39;98201.89;;;19.72;30.43
51999;BME280;73339;50.924;11.598;2024-03-25T02:03:09;98204.85;;;19.70;30.50
51999;BME280;73339;50.924;11.598;2024-03-25T02:05:40;98198.41;;;19.66;30.66
51999;BME280;73339;50.924;11.598;2024-03-25T02:08:11;98202.76;;;19.69;30.58
51999;BME280;73339;50.924;11.598;2024-03-25T02:10:41;98195.17;;;19.67;30.45
51999;BME280;73339;50.924;11.598;2024-03-25T02:13:12;98202.45;;;19.68;30.51
51999;BME280;73339;50.924;11.598;2024-03-25T02:15:42;98198.67;;;19.66;30.59
51999;BME280;73339;50.924;11.598;2024-03-25T02:18:12;98209.92;;;19.66;30.49
51999;BME280;73339;50.924;11.598;2024-03-25T02:20:43;98206.36;;;19.64;30.54
51999;BME280;73339;50.924;11.598;2024-03-25T02:23:14;98206.54;;;19.64;30.60
51999;BME280;73339;50.924;11.598;2024-03-25T02:25:49;98213.14;;;19.70;30.50
51999;BME280;73339;50.924;11.598;2024-03-25T02:28:14;98223.74;;;19.65;30.51
51999;BME280;73339;50.924;11.598;2024-03-25T02:30:45;98220.07;;;19.71;30.46
51999;BME280;73339;50.924;11.598;2024-03-25T02:33:16;98220.12;;;19.65;30.63
51999;BME280;73339;50.924;11.598;2024-03-25T02:35:46;98224.64;;;19.62;30.51
51999;BME280;73339;50.924;11.598;2024-03-25T02:38:16;98222.96;;;19.66;30.51
51999;BME280;73339;50.924;11.598;2024-03-25T02:40:47;98231.19;;;19.63;30.56
51999;BME280;73339;50.924;11.598;2024-03-25T02:43:18;98231.76;;;19.68;30.52
51999;BME280;73339;50.924;11.598;2024-03-25T02:45:48;98228.89;;;19.67;30.50
51999;BME280;73339;50.924;11.598;2024-03-25T02:48:18;98238.34;;;19.68;30.45
51999;BME280;73339;50.924;11.598;2024-03-25T02:50:49;98239.20;;;19.65;30.53
51999;BME280;73339;50.924;11.598;2024-03-25T02:53:19;98238.78;;;19.69;30.43
51999;BME280;73339;50.924;11.598;2024-03-25T02:55:50;98241.21;;;19.67;30.49
51999;BME280;73339;50.924;11.598;2024-03-25T02:58:20;98244.55;;;19.70;30.45
51999;BME280;73339;50.924;11.598;2024-03-25T03:00:50;98244.99;;;19.67;30.47
51999;BME280;73339;50.924;11.598;2024-03-25T03:03:21;98248.78;;;19.64;30.53
51999;BME280;73339;50.924;11.598;2024-03-25T03:05:51;98254.99;;;19.67;30.56
51999;BME280;73339;50.924;11.598;2024-03-25T03:08:22;98258.46;;;19.71;30.42
51999;BME280;73339;50.924;11.598;2024-03-25T03:10:52;98255.14;;;19.70;30.40
51999;BME280;73339;50.924;11.598;2024-03-25T03:13:23;98262.10;;;19.67;30.52
51999;BME280;73339;50.924;11.598;2024-03-25T03:15:53;98270.81;;;19.64;30.54
51999;BME280;73339;50.924;11.598;2024-03-25T03:18:24;98267.28;;;19.64;30.54
51999;BME280;73339;50.924;11.598;2024-03-25T03:20:54;98269.05;;;19.68;30.41
51999;BME280;73339;50.924;11.598;2024-03-25T03:23:25;98276.51;;;19.65;30.47
51999;BME280;73339;50.924;11.598;2024-03-25T03:25:55;98269.56;;;19.67;30.43
51999;BME280;73339;50.924;11.598;2024-03-25T03:28:26;98266.53;;;19.68;30.52
51999;BME280;73339;50.924;11.598;2024-03-25T03:30:56;98273.20;;;19.69;30.44
51999;BME280;73339;50.924;11.598;2024-03-25T03:33:27;98273.71;;;19.71;30.44
51999;BME280;73339;50.924;11.598;2024-03-25T03:35:58;98281.30;;;19.61;30.59
51999;BME280;73339;50.924;11.598;2024-03-25T03:38:28;98279.02;;;19.68;30.48
51999;BME280;73339;50.924;11.598;2024-03-25T03:40:59;98279.62;;;19.69;30.44
51999;BME280;73339;50.924;11.598;2024-03-25T03:43:29;98288.13;;;19.70;30.40
51999;BME280;73339;50.924;11.598;2024-03-25T03:45:59;98288.72;;;19.68;30.46
51999;BME280;73339;50.924;11.598;2024-03-25T03:48:30;98290.05;;;19.69;30.45
51999;BME280;73339;50.924;11.598;2024-03-25T03:51:00;98295.11;;;19.71;30.45
51999;BME280;73339;50.924;11.598;2024-03-25T03:53:31;98299.62;;;19.68;30.44
51999;BME280;73339;50.924;11.598;2024-03-25T03:56:03;98305.99;;;19.65;30.53
51999;BME280;73339;50.924;11.598;2024-03-25T03:58:32;98310.55;;;19.69;30.51
51999;BME280;73339;50.924;11.598;2024-03-25T04:01:02;98317.00;;;19.70;30.51
51999;BME280;73339;50.924;11.598;2024-03-25T04:03:32;98313.19;;;19.69;30.51
51999;BME280;73339;50.924;11.598;2024-03-25T04:06:08;98321.32;;;19.68;30.56
51999;BME280;73339;50.924;11.598;2024-03-25T04:08:33;98320.87;;;19.71;30.47
51999;BME280;73339;50.924;11.598;2024-03-25T04:11:04;98323.14;;;19.70;30.45
51999;BME280;73339;50.924;11.598;2024-03-25T04:13:35;98326.53;;;19.67;30.52
51999;BME280;73339;50.924;11.598;2024-03-25T04:16:06;98319.10;;;19.67;30.52
51999;BME280;73339;50.924;11.598;2024-03-25T04:18:36;98317.57;;;19.65;30.56
51999;BME280;73339;50.924;11.598;2024-03-25T04:21:11;98318.69;;;19.71;30.44
51999;BME280;73339;50.924;11.598;2024-03-25T04:23:36;98322.69;;;19.63;30.52
51999;BME280;73339;50.924;11.598;2024-03-25T04:26:07;98326.34;;;19.66;30.68
51999;BME280;73339;50.924;11.598;2024-03-25T04:28:38;98323.18;;;19.69;30.52
51999;BME280;73339;50.924;11.598;2024-03-25T04:31:08;98331.38;;;19.69;30.47
51999;BME280;73339;50.924;11.598;2024-03-25T04:33:38;98335.91;;;19.65;30.57
51999;BME280;73339;50.924;11.598;2024-03-25T04:36:09;98335.34;;;19.69;30.48
51999;BME280;73339;50.924;11.598;2024-03-25T04:38:39;98347.04;;;19.70;30.47
51999;BME280;73339;50.924;11.598;2024-03-25T04:41:10;98347.07;;;19.72;30.43
51999;BME280;73339;50.924;11.598;2024-03-25T04:43:40;98348.68;;;19.69;30.51
51999;BME280;73339;50.924;11.598;2024-03-25T04:46:11;98352.67;;;19.62;30.68
51999;BME280;73339;50.924;11.598;2024-03-25T04:48:41;98359.67;;;19.69;30.46
51999;BME280;73339;50.924;11.598;2024-03-25T04:51:12;98361.10;;;19.70;30.44
51999;BME280;73339;50.924;11.598;2024-03-25T04:53:42;98360.02;;;19.68;30.47
51999;BME280;73339;50.924;11.598;2024-03-25T04:56:12;98362.49;;;19.69;30.44
51999;BME280;73339;50.924;11.598;2024-03-25T04:58:43;98361.11;;;19.70;30.50
51999;BME280;73339;50.924;11.598;2024-03-25T05:01:14;98355.15;;;19.71;30.48
51999;BME280;73339;50.924;11.598;2024-03-25T05:03:44;98360.88;;;19.63;30.55
51999;BME280;73339;50.924;11.598;2024-03-25T05:06:15;98363.31;;;19.72;30.34
51999;BME280;73339;50.924;11.598;2024-03-25T05:08:45;98369.33;;;19.70;30.41
51999;BME280;73339;50.924;11.598;2024-03-25T05:11:15;98376.85;;;19.67;30.45
51999;BME280;73339;50.924;11.598;2024-03-25T05:13:46;98386.99;;;19.71;30.41
51999;BME280;73339;50.924;11.598;2024-03-25T05:16:16;98385.05;;;19.71;30.37
51999;BME280;73339;50.924;11.598;2024-03-25T05:18:47;98386.29;;;19.73;30.39
51999;BME280;73339;50.924;11.598;2024-03-25T05:21:17;98389.00;;;19.66;30.55
51999;BME280;73339;50.924;11.598;2024-03-25T05:23:48;98394.53;;;19.67;30.52
51999;BME280;73339;50.924;11.598;2024-03-25T05:26:18;98393.53;;;19.69;30.55
51999;BME280;73339;50.924;11.598;2024-03-25T05:28:52;98395.67;;;19.67;30.53
51999;BME280;73339;50.924;11.598;2024-03-25T05:31:19;98395.25;;;19.66;30.54
51999;BME280;73339;50.924;11.598;2024-03-25T05:33:50;98393.11;;;19.71;30.39
51999;BME280;73339;50.924;11.598;2024-03-25T05:36:20;98393.78;;;19.74;30.39
51999;BME280;73339;50.924;11.598;2024-03-25T05:38:51;98394.11;;;19.74;30.43
51999;BME280;73339;50.924;11.598;2024-03-25T05:41:21;98403.07;;;19.74;30.40
51999;BME280;73339;50.924;11.598;2024-03-25T05:43:53;98405.85;;;19.74;30.36
51999;BME280;73339;50.924;11.598;2024-03-25T05:46:22;98409.29;;;19.74;30.39
51999;BME280;73339;50.924;11.598;2024-03-25T05:48:53;98413.17;;;19.73;30.42
51999;BME280;73339;50.924;11.598;2024-03-25T05:51:23;98411.57;;;19.73;30.42
51999;BME280;73339;50.924;11.598;2024-03-25T05:53:54;98415.99;;;19.73;30.42
51999;BME280;73339;50.924;11.598;2024-03-25T05:56:24;98418.04;;;19.78;30.39
51999;BME280;73339;50.924;11.598;2024-03-25T05:58:54;98425.22;;;19.76;30.38
51999;BME280;73339;50.924;11.598;2024-03-25T06:01:25;98425.62;;;19.74;30.44
51999;BME280;73339;50.924;11.598;2024-03-25T06:03:55;98432.51;;;19.71;30.38
51999;BME280;73339;50.924;11.598;2024-03-25T06:06:26;98438.50;;;19.70;30.46
51999;BME280;73339;50.924;11.598;2024-03-25T06:08:56;98443.94;;;19.62;30.58
51999;BME280;73339;50.924;11.598;2024-03-25T06:11:27;98447.73;;;19.73;30.44
51999;BME280;73339;50.924;11.598;2024-03-25T06:13:58;98451.36;;;19.70;30.50
51999;BME280;73339;50.924;11.598;2024-03-25T06:16:28;98454.28;;;19.67;30.52
51999;BME280;73339;50.924;11.598;2024-03-25T06:18:59;98458.26;;;19.69;30.63
51999;BME280;73339;50.924;11.598;2024-03-25T06:21:29;98454.19;;;19.70;30.54
51999;BME280;73339;50.924;11.598;2024-03-25T06:23:59;98461.01;;;19.72;30.54
51999;BME280;73339;50.924;11.598;2024-03-25T06:26:30;98467.01;;;19.61;30.69
51999;BME280;73339;50.924;11.598;2024-03-25T06:29:00;98469.05;;;19.67;30.63
51999;BME280;73339;50.924;11.598;2024-03-25T06:31:31;98473.02;;;19.70;30.50
51999;BME280;73339;50.924;11.598;2024-03-25T06:34:02;98472.98;;;19.70;30.51
51999;BME280;73339;50.924;11.598;2024-03-25T06:36:32;98475.08;;;19.75;30.46
51999;BME280;73339;50.924;11.598;2024-03-25T06:39:02;98476.67;;;19.75;30.52
51999;BME280;73339;50.924;11.598;2024-03-25T06:41:33;98477.19;;;19.69;30.51
51999;BME280;73339;50.924;11.598;2024-03-25T06:44:03;98479.60;;;19.74;30.47
51999;BME280;73339;50.924;11.598;2024-03-25T06:46:34;98488.18;;;19.81;30.30
51999;BME280;73339;50.924;11.598;2024-03-25T06:49:04;98482.90;;;19.78;30.46
51999;BME280;73339;50.924;11.598;2024-03-25T06:51:35;98486.56;;;19.74;30.44
51999;BME280;73339;50.924;11.598;2024-03-25T06:54:05;98488.66;;;19.75;30.43
51999;BME280;73339;50.924;11.598;2024-03-25T06:56:36;98492.73;;;19.81;30.40
51999;BME280;73339;50.924;11.598;2024-03-25T06:59:06;98491.46;;;19.84;30.33
51999;BME280;73339;50.924;11.598;2024-03-25T07:01:36;98487.70;;;19.91;30.22
51999;BME280;73339;50.924;11.598;2024-03-25T07:04:07;98498.71;;;19.78;30.33
51999;BME280;73339;50.924;11.598;2024-03-25T07:06:37;98495.15;;;19.84;30.33
51999;BME280;73339;50.924;11.598;2024-03-25T07:09:08;98499.59;;;19.90;30.26
51999;BME280;73339;50.924;11.598;2024-03-25T07:11:39;98502.89;;;19.92;30.20
51999;BME280;73339;50.924;11.598;2024-03-25T07:14:09;98502.52;;;19.95;30.18
51999;BME280;73339;50.924;11.598;2024-03-25T07:16:39;98504.51;;;20.01;30.05
51999;BME280;73339;50.924;11.598;2024-03-25T07:19:10;98505.72;;;20.12;29.91
51999;BME280;73339;50.924;11.598;2024-03-25T07:21:40;98509.72;;;20.14;29.86
51999;BME280;73339;50.924;11.598;2024-03-25T07:24:11;98508.54;;;20.13;29.94
51999;BME280;73339;50.924;11.598;2024-03-25T07:26:41;98510.10;;;20.17;30.07
51999;BME280;73339;50.924;11.598;2024-03-25T07:29:12;98517.94;;;20.24;29.74
51999;BME280;73339;50.924;11.598;2024-03-25T07:31:42;98522.37;;;20.40;29.42
51999;BME280;73339;50.924;11.598;2024-03-25T07:34:13;98523.00;;;20.45;29.39
51999;BME280;73339;50.924;11.598;2024-03-25T07:36:43;98523.99;;;20.52;29.27
51999;BME280;73339;50.924;11.598;2024-03-25T07:39:13;98524.22;;;20.57;29.20
51999;BME280;73339;50.924;11.598;2024-03-25T07:41:44;98523.82;;;20.26;29.70
51999;BME280;73339;50.924;11.598;2024-03-25T07:44:14;98527.61;;;20.01;30.17
51999;BME280;73339;50.924;11.598;2024-03-25T07:46:45;98529.89;;;19.95;30.31
51999;BME280;73339;50.924;11.598;2024-03-25T07:49:15;98532.82;;;19.99;30.26
51999;BME280;73339;50.924;11.598;2024-03-25T07:51:46;98534.35;;;19.97;30.33
51999;BME280;73339;50.924;11.598;2024-03-25T07:54:16;98535.88;;;20.07;30.21
51999;BME280;73339;50.924;11.598;2024-03-25T07:56:46;98532.64;;;20.00;30.24
51999;BME280;73339;50.924;11.598;2024-03-25T07:59:17;98536.20;;;20.10;30.09
51999;BME280;73339;50.924;11.598;2024-03-25T08:01:47;98536.26;;;20.10;30.20
51999;BME280;73339;50.924;11.598;2024-03-25T08:04:18;98541.60;;;20.02;30.31
51999;BME280;73339;50.924;11.598;2024-03-25T08:06:48;98547.44;;;20.15;30.12
51999;BME280;73339;50.924;11.598;2024-03-25T08:09:19;98549.98;;;20.23;30.03
51999;BME280;73339;50.924;11.598;2024-03-25T08:11:49;98561.27;;;20.27;29.85
51999;BME280;73339;50.924;11.598;2024-03-25T08:14:20;98559.15;;;20.18;30.03
51999;BME280;73339;50.924;11.598;2024-03-25T08:16:50;98563.55;;;20.18;30.04
51999;BME280;73339;50.924;11.598;2024-03-25T08:19:21;98565.70;;;20.06;30.31
51999;BME280;73339;50.924;11.598;2024-03-25T08:21:51;98566.66;;;20.22;29.96
51999;BME280;73339;50.924;11.598;2024-03-25T08:24:22;98567.23;;;20.06;30.26
51999;BME280;73339;50.924;11.598;2024-03-25T08:26:52;98566.51;;;20.18;30.24
51999;BME280;73339;50.924;11.598;2024-03-25T08:29:23;98567.59;;;20.25;30.02
51999;BME280;73339;50.924;11.598;2024-03-25T08:31:53;98568.33;;;20.50;29.53
51999;BME280;73339;50.924;11.598;2024-03-25T08:34:23;98565.61;;;20.55;29.43
51999;BME280;73339;50.924;11.598;2024-03-25T08:36:54;98561.53;;;20.57;29.40
51999;BME280;73339;50.924;11.598;2024-03-25T08:39:24;98560.29;;;20.46;29.63
51999;BME280;73339;50.924;11.598;2024-03-25T08:41:55;98562.65;;;20.47;29.62
51999;BME280;73339;50.924;11.598;2024-03-25T08:44:25;98562.57;;;20.30;29.96
51999;BME280;73339;50.924;11.598;2024-03-25T08:46:56;98568.30;;;20.36;29.88
51999;BME280;73339;50.924;11.598;2024-03-25T08:49:26;98560.65;;;20.21;30.08
51999;BME280;73339;50.924;11.598;2024-03-25T08:51:57;98557.48;;;20.23;30.09
51999;BME280;73339;50.924;11.598;2024-03-25T08:54:27;98565.10;;;20.30;29.99
51999;BME280;73339;50.924;11.598;2024-03-25T08:56:57;98563.19;;;20.11;30.32
51999;BME280;73339;50.924;11.598;2024-03-25T08:59:28;98565.03;;;20.22;30.14
51999;BME280;73339;50.924;11.598;2024-03-25T09:01:59;98566.33;;;20.10;30.39
51999;BME280;73339;50.924;11.598;2024-03-25T09:04:29;98568.73;;;20.10;30.38
51999;BME280;73339;50.924;11.598;2024-03-25T09:07:00;98572.89;;;19.99;30.53
51999;BME280;73339;50.924;11.598;2024-03-25T09:09:30;98577.24;;;20.05;30.38
51999;BME280;73339;50.924;11.598;2024-03-25T09:12:00;98575.88;;;20.12;30.33
51999;BME280;73339;50.924;11.598;2024-03-25T09:14:31;98580.16;;;20.05;30.42
51999;BME280;73339;50.924;11.598;2024-03-25T09:17:01;98576.85;;;20.10;30.38
51999;BME280;73339;50.924;11.598;2024-03-25T09:19:32;98580.75;;;20.14;30.25
51999;BME280;73339;50.924;11.598;2024-03-25T09:22:02;98581.05;;;19.98;30.58
51999;BME280;73339;50.924;11.598;2024-03-25T09:24:32;98579.99;;;20.11;30.32
51999;BME280;73339;50.924;11.598;2024-03-25T09:27:03;98586.93;;;19.92;30.58
51999;BME280;73339;50.924;11.598;2024-03-25T09:29:33;98592.63;;;19.97;30.50
51999;BME280;73339;50.924;11.598;2024-03-25T09:32:04;98591.46;;;19.88;30.63
51999;BME280;73339;50.924;11.598;2024-03-25T09:34:34;98601.12;;;19.82;30.79
51999;BME280;73339;50.924;11.598;2024-03-25T09:37:05;98600.02;;;19.86;30.70
51999;BME280;73339;50.924;11.598;2024-03-25T09:39:35;98599.52;;;19.90;30.60
51999;BME280;73339;50.924;11.598;2024-03-25T09:42:08;98597.39;;;19.88;30.66
51999;BME280;73339;50.924;11.598;2024-03-25T09:44:36;98603.68;;;19.87;30.61
51999;BME280;73339;50.924;11.598;2024-03-25T09:47:07;98599.18;;;19.90;30.54
51999;BME280;73339;50.924;11.598;2024-03-25T09:49:40;98597.22;;;19.80;30.76
51999;BME280;73339;50.924;11.598;2024-03-25T09:52:08;98594.70;;;19.91;30.52
51999;BME280;73339;50.924;11.598;2024-03-25T09:54:38;98596.95;;;19.80;30.70
51999;BME280;73339;50.924;11.598;2024-03-25T09:57:08;98598.83;;;19.81;30.71
51999;BME280;73339;50.924;11.598;2024-03-25T09:59:39;98599.52;;;19.74;30.94
51999;BME280;73339;50.924;11.598;2024-03-25T10:02:11;98592.70;;;19.91;30.57
51999;BME280;73339;50.924;11.598;2024-03-25T10:04:45;98591.87;;;19.96;30.42
51999;BME280;73339;50.924;11.598;2024-03-25T10:07:10;98594.55;;;19.94;30.53
51999;BME280;73339;50.924;11.598;2024-03-25T10:09:43;98593.93;;;19.93;30.57
51999;BME280;73339;50.924;11.598;2024-03-25T10:12:12;98595.11;;;20.05;30.36
51999;BME280;73339;50.924;11.598;2024-03-25T10:14:42;98599.17;;;19.85;30.68
51999;BME280;73339;50.924;11.598;2024-03-25T10:17:12;98594.69;;;20.03;30.42
51999;BME280;73339;50.924;11.598;2024-03-25T10:19:42;98593.61;;;20.01;30.44
51999;BME280;73339;50.924;11.598;2024-03-25T10:22:13;98587.36;;;19.97;30.53
51999;BME280;73339;50.924;11.598;2024-03-25T10:24:45;98586.37;;;19.95;30.59
51999;BME280;73339;50.924;11.598;2024-03-25T10:27:18;98589.08;;;19.93;30.74
51999;BME280;73339;50.924;11.598;2024-03-25T10:29:44;98592.96;;;19.93;30.61
51999;BME280;73339;50.924;11.598;2024-03-25T10:32:15;98597.72;;;19.97;30.51
51999;BME280;73339;50.924;11.598;2024-03-25T10:34:45;98601.86;;;19.96;30.55
51999;BME280;73339;50.924;11.598;2024-03-25T10:37:17;98596.10;;;19.84;30.78
51999;BME280;73339;50.924;11.598;2024-03-25T10:39:48;98601.81;;;20.01;30.47
51999;BME280;73339;50.924;11.598;2024-03-25T10:42:18;98594.94;;;19.97;30.54
51999;BME280;73339;50.924;11.598;2024-03-25T10:44:48;98594.73;;;19.94;30.56
51999;BME280;73339;50.924;11.598;2024-03-25T10:47:20;98593.34;;;19.99;30.54
51999;BME280;73339;50.924;11.598;2024-03-25T10:49:49;98596.15;;;19.84;30.77
51999;BME280;73339;50.924;11.598;2024-03-25T10:52:20;98595.79;;;19.86;30.77
51999;BME280;73339;50.924;11.598;2024-03-25T10:54:50;98592.39;;;19.86;30.76
51999;BME280;73339;50.924;11.598;2024-03-25T10:57:19;98589.76;;;19.91;30.61
51999;BME280;73339;50.924;11.598;2024-03-25T10:59:50;98592.38;;;19.78;30.88
51999;BME280;73339;50.924;11.598;2024-03-25T11:02:20;98584.36;;;19.82;30.80
51999;BME280;73339;50.924;11.598;2024-03-25T11:04:51;98586.60;;;19.73;31.01
51999;BME280;73339;50.924;11.598;2024-03-25T11:07:29;98587.39;;;19.74;30.99
51999;BME280;73339;50.924;11.598;2024-03-25T11:12:22;98587.59;;;19.71;31.02
51999;BME280;73339;50.924;11.598;2024-03-25T11:14:57;98583.96;;;19.60;31.20
51999;BME280;73339;50.924;11.598;2024-03-25T11:17:23;98585.81;;;19.74;30.99
51999;BME280;73339;50.924;11.598;2024-03-25T11:19:54;98579.71;;;19.71;30.96
51999;BME280;73339;50.924;11.598;2024-03-25T11:22:24;98573.20;;;19.73;31.02
51999;BME280;73339;50.924;11.598;2024-03-25T11:24:55;98568.93;;;19.76;30.93
51999;BME280;73339;50.924;11.598;2024-03-25T11:27:26;98565.98;;;19.83;30.80
51999;BME280;73339;50.924;11.598;2024-03-25T11:29:56;98564.67;;;19.87;30.75
51999;BME280;73339;50.924;11.598;2024-03-25T11:32:26;98565.13;;;19.87;30.74
51999;BME280;73339;50.924;11.598;2024-03-25T11:34:56;98562.86;;;20.00;30.57
51999;BME280;73339;50.924;11.598;2024-03-25T11:37:26;98554.37;;;19.81;30.80
51999;BME280;73339;50.924;11.598;2024-03-25T11:40:02;98549.55;;;20.00;30.54
51999;BME280;73339;50.924;11.598;2024-03-25T11:42:27;98551.17;;;19.92;30.62
51999;BME280;73339;50.924;11.598;2024-03-25T11:44:58;98552.85;;;20.06;30.34
51999;BME280;73339;50.924;11.598;2024-03-25T11:47:28;98553.44;;;20.05;30.42
51999;BME280;73339;50.924;11.598;2024-03-25T11:49:59;98553.53;;;19.92;30.65
51999;BME280;73339;50.924;11.598;2024-03-25T11:52:31;98555.04;;;19.88;30.65
51999;BME280;73339;50.924;11.598;2024-03-25T11:54:59;98558.14;;;19.78;30.85
51999;BME280;73339;50.924;11.598;2024-03-25T11:57:30;98559.26;;;19.83;30.82
51999;BME280;73339;50.924;11.598;2024-03-25T12:00:01;98556.65;;;19.93;30.63
51999;BME280;73339;50.924;11.598;2024-03-25T12:02:31;98552.89;;;20.03;30.39
51999;BME280;73339;50.924;11.598;2024-03-25T12:05:02;98554.96;;;19.93;30.55
51999;BME280;73339;50.924;11.598;2024-03-25T12:07:32;98552.29;;;19.97;30.54
51999;BME280;73339;50.924;11.598;2024-03-25T12:10:03;98548.33;;;19.85;30.72
51999;BME280;73339;50.924;11.598;2024-03-25T12:12:33;98542.33;;;19.94;30.50
51999;BME280;73339;50.924;11.598;2024-03-25T12:15:04;98538.75;;;19.97;30.50
51999;BME280;73339;50.924;11.598;2024-03-25T12:17:34;98536.95;;;19.99;30.48
51999;BME280;73339;50.924;11.598;2024-03-25T12:20:06;98529.12;;;20.01;30.43
51999;BME280;73339;50.924;11.598;2024-03-25T12:22:35;98526.82;;;20.00;30.47
51999;BME280;73339;50.924;11.598;2024-03-25T12:25:07;98522.27;;;20.08;30.32
51999;BME280;73339;50.924;11.598;2024-03-25T12:27:36;98520.81;;;20.15;30.23
51999;BME280;73339;50.924;11.598;2024-03-25T12:30:07;98516.92;;;19.99;30.53
51999;BME280;73339;50.924;11.598;2024-03-25T12:32:37;98516.28;;;19.99;30.54
51999;BME280;73339;50.924;11.598;2024-03-25T12:35:08;98516.84;;;19.97;30.55
51999;BME280;73339;50.924;11.598;2024-03-25T12:37:38;98516.25;;;19.99;30.55
51999;BME280;73339;50.924;11.598;2024-03-25T12:40:10;98511.12;;;19.84;30.77
51999;BME280;73339;50.924;11.598;2024-03-25T12:42:38;98512.03;;;19.90;30.66
51999;BME280;73339;50.924;11.598;2024-03-25T12:45:09;98513.25;;;19.96;30.56
51999;BME280;73339;50.924;11.598;2024-03-25T12:47:39;98518.29;;;20.06;30.31
51999;BME280;73339;50.924;11.598;2024-03-25T12:50:09;98516.77;;;20.07;30.25
51999;BME280;73339;50.924;11.598;2024-03-25T12:52:40;98512.84;;;20.06;30.31
51999;BME280;73339;50.924;11.598;2024-03-25T12:55:10;98513.20;;;19.95;30.50
51999;BME280;73339;50.924;11.598;2024-03-25T12:57:41;98508.29;;;20.03;30.36
51999;BME280;73339;50.924;11.598;2024-03-25T13:00:12;98501.37;;;20.05;30.33
51999;BME280;73339;50.924;11.598;2024-03-25T13:02:41;98501.65;;;19.95;30.56
51999;BME280;73339;50.924;11.598;2024-03-25T13:05:12;98499.50;;;19.94;30.54
51999;BME280;73339;50.924;11.598;2024-03-25T13:07:42;98502.55;;;20.04;30.40